Time;durP1;ratioP1;P1;durP2;ratioP2;P2;SDS_P1;SDS_P2;PMS_P1;PMS_P2;Temp;Humidity;BMP_temperature;BMP_pressure;BME280_temperature;BME280_humidity;BME280_pressure;Samples;Min_cycle;Max_cycle;Signal;HPM_P1;HPM_P2
2023/12/28 00:01:07;;;;;;;;;;;15.70;56.10;;;;;;7397492;19;2772;-73
2023/12/28 00:03:32;;;;;;;;;;;15.70;56.20;;;;;;7391227;19;3145;-73
2023/12/28 00:05:57;;;;;;;;;;;15.70;56.10;;;;;;7399284;19;1718;-73
2023/12/28 00:08:23;;;;;;;;;;;15.60;56.10;;;;;;7393214;19;3353;-73
2023/12/28 00:10:48;;;;;;;;;;;15.60;56.00;;;;;;7399390;19;1683;-73
2023/12/28 00:13:14;;;;;;;;;;;15.60;56.20;;;;;;7395477;19;1514;-73
2023/12/28 00:15:39;;;;;;;;;;;15.60;56.20;;;;;;7393959;19;3300;-73
2023/12/28 00:18:05;;;;;;;;;;;15.60;56.20;;;;;;7394050;19;4322;-73
2023/12/28 00:20:30;;;;;;;;;;;15.50;56.30;;;;;;7397985;19;3336;-73
2023/12/28 00:22:56;;;;;;;;;;;15.50;56.40;;;;;;7394033;19;3916;-73
2023/12/28 00:25:21;;;;;;;;;;;15.50;56.30;;;;;;7393691;19;3155;-73
2023/12/28 00:27:46;;;;;;;;;;;15.40;56.90;;;;;;7382837;19;3865;-73
2023/12/28 00:30:13;;;;;;;;;;;15.40;56.30;;;;;;7389959;19;3945;-73
2023/12/28 00:32:39;;;;;;;;;;;15.40;56.40;;;;;;7397805;19;1175;-73
2023/12/28 00:35:04;;;;;;;;;;;15.40;56.50;;;;;;7397815;19;1643;-73
2023/12/28 00:37:30;;;;;;;;;;;15.40;56.70;;;;;;7392350;19;3370;-73
2023/12/28 00:39:55;;;;;;;;;;;15.40;56.50;;;;;;7398810;19;819;-74
2023/12/28 00:42:20;;;;;;;;;;;15.40;56.50;;;;;;7394107;19;1854;-73
2023/12/28 00:44:46;;;;;;;;;;;15.40;56.60;;;;;;7394332;19;3232;-73
2023/12/28 00:47:11;;;;;;;;;;;15.30;56.70;;;;;;7393359;19;804;-73
2023/12/28 00:49:37;;;;;;;;;;;15.30;56.80;;;;;;7397376;19;3433;-73
2023/12/28 00:52:02;;;;;;;;;;;15.30;56.80;;;;;;7396113;19;4423;-73
2023/12/28 00:54:28;;;;;;;;;;;15.30;56.90;;;;;;7393776;19;973;-73
2023/12/28 00:56:53;;;;;;;;;;;15.30;56.90;;;;;;7394681;19;3259;-73
2023/12/28 00:59:19;;;;;;;;;;;15.30;57.00;;;;;;7394965;19;4366;-73
2023/12/28 01:01:44;;;;;;;;;;;15.20;56.90;;;;;;7396459;19;1837;-73
2023/12/28 01:04:10;;;;;;;;;;;15.20;56.90;;;;;;7394436;19;1315;-73
2023/12/28 01:06:36;;;;;;;;;;;15.20;57.00;;;;;;7389873;19;4782;-73
2023/12/28 01:09:01;;;;;;;;;;;15.20;57.10;;;;;;7396717;19;1407;-73
2023/12/28 01:11:27;;;;;;;;;;;15.20;57.10;;;;;;7395260;19;1440;-73
2023/12/28 01:13:53;;;;;;;;;;;15.10;57.10;;;;;;7394816;19;3427;-74
2023/12/28 01:16:18;;;;;;;;;;;15.10;57.10;;;;;;7395880;19;1410;-73
2023/12/28 01:18:43;;;;;;;;;;;15.10;57.20;;;;;;7393030;19;1363;-73
2023/12/28 01:21:09;;;;;;;;;;;15.10;57.10;;;;;;7393626;19;4156;-73
2023/12/28 01:23:34;;;;;;;;;;;15.10;57.20;;;;;;7392713;19;1838;-74
2023/12/28 01:26:00;;;;;;;;;;;15.10;57.30;;;;;;7396405;19;926;-73
2023/12/28 01:28:25;;;;;;;;;;;15.10;57.20;;;;;;7401003;19;3062;-73
2023/12/28 01:30:51;;;;;;;;;;;15.10;57.30;;;;;;7401054;19;1386;-73
2023/12/28 01:33:16;;;;;;;;;;;15.10;57.30;;;;;;7399573;19;1536;-73
2023/12/28 01:35:42;;;;;;;;;;;15.00;57.40;;;;;;7401676;19;3107;-73
2023/12/28 01:38:07;;;;;;;;;;;15.00;57.30;;;;;;7399999;19;811;-73
2023/12/28 01:40:32;;;;;;;;;;;15.00;57.50;;;;;;7401698;19;1466;-73
2023/12/28 01:42:58;;;;;;;;;;;15.00;57.40;;;;;;7398562;19;3355;-73
2023/12/28 01:45:23;;;;;;;;;;;15.00;57.50;;;;;;7402563;19;1439;-73
2023/12/28 01:47:49;;;;;;;;;;;14.90;57.40;;;;;;7402985;19;1515;-73
2023/12/28 01:50:14;;;;;;;;;;;15.00;57.50;;;;;;7400414;19;4362;-73
2023/12/28 01:52:39;;;;;;;;;;;15.00;57.60;;;;;;7403846;19;1746;-73
2023/12/28 01:55:05;;;;;;;;;;;14.90;57.60;;;;;;7399743;19;2564;-72
2023/12/28 01:57:30;;;;;;;;;;;14.90;57.60;;;;;;7400404;19;4159;-73
2023/12/28 01:59:56;;;;;;;;;;;14.90;57.60;;;;;;7402319;19;1444;-73
2023/12/28 02:02:22;;;;;;;;;;;14.90;57.70;;;;;;7401259;19;1836;-73
2023/12/28 02:04:47;;;;;;;;;;;14.90;57.80;;;;;;7401193;19;3371;-73
2023/12/28 02:07:13;;;;;;;;;;;14.90;57.70;;;;;;7400985;19;1508;-73
2023/12/28 02:09:39;;;;;;;;;;;14.90;57.70;;;;;;7397954;19;1313;-73
2023/12/28 02:12:05;;;;;;;;;;;14.90;57.60;;;;;;7400497;19;3126;-73
2023/12/28 02:14:30;;;;;;;;;;;15.00;57.50;;;;;;7399379;19;851;-73
2023/12/28 02:17:00;;;;;;;;;;;15.10;57.20;;;;;;7400805;19;1389;-72
2023/12/28 02:19:37;;;;;;;;;;;15.20;56.90;;;;;;7399993;19;2862;-73
2023/12/28 02:22:02;;;;;;;;;;;15.40;56.70;;;;;;7398656;19;1846;-73
2023/12/28 02:24:28;;;;;;;;;;;15.50;56.20;;;;;;7397773;19;2751;-73
2023/12/28 02:26:53;;;;;;;;;;;15.70;55.90;;;;;;7404369;19;3146;-73
2023/12/28 02:29:19;;;;;;;;;;;16.00;55.40;;;;;;7400411;19;1401;-74
2023/12/28 02:31:56;;;;;;;;;;;16.40;54.80;;;;;;7398814;19;4023;-74
2023/12/28 02:34:26;;;;;;;;;;;16.70;53.90;;;;;;7400251;19;3606;-73
2023/12/28 02:36:52;;;;;;;;;;;17.10;53.00;;;;;;7401924;19;1521;-73
2023/12/28 02:39:17;;;;;;;;;;;17.60;52.40;;;;;;7396171;19;3004;-73
2023/12/28 02:41:43;;;;;;;;;;;17.80;51.70;;;;;;7401776;19;871;-74
2023/12/28 02:44:09;;;;;;;;;;;18.00;51.10;;;;;;7395012;19;1858;-74
2023/12/28 02:46:34;;;;;;;;;;;18.20;50.70;;;;;;7400968;19;2789;-73
2023/12/28 02:49:00;;;;;;;;;;;18.20;50.60;;;;;;7401263;19;3180;-74
2023/12/28 02:51:25;;;;;;;;;;;18.20;50.60;;;;;;7401548;19;1412;-74
2023/12/28 02:53:50;;;;;;;;;;;18.10;50.70;;;;;;7397696;19;4420;-74
2023/12/28 02:56:16;;;;;;;;;;;18.00;50.80;;;;;;7400472;19;1615;-73
2023/12/28 02:58:41;;;;;;;;;;;17.90;51.00;;;;;;7401624;19;1620;-74
2023/12/28 03:01:07;;;;;;;;;;;17.90;51.30;;;;;;7397439;19;2950;-73
2023/12/28 03:03:32;;;;;;;;;;;17.80;51.30;;;;;;7399694;19;1849;-74
2023/12/28 03:05:58;;;;;;;;;;;17.80;51.50;;;;;;7399057;19;2696;-74
2023/12/28 03:08:24;;;;;;;;;;;17.80;51.60;;;;;;7397744;19;3666;-73
2023/12/28 03:10:49;;;;;;;;;;;17.70;51.80;;;;;;7402302;19;2006;-73
2023/12/28 03:13:15;;;;;;;;;;;17.60;52.00;;;;;;7398982;19;3804;-73
2023/12/28 03:15:40;;;;;;;;;;;17.60;52.20;;;;;;7399099;19;3311;-74
2023/12/28 03:18:05;;;;;;;;;;;17.50;52.40;;;;;;7401234;19;1636;-73
2023/12/28 03:20:31;;;;;;;;;;;17.40;52.50;;;;;;7400835;19;1748;-74
2023/12/28 03:22:56;;;;;;;;;;;17.30;52.70;;;;;;7396132;19;2862;-73
2023/12/28 03:25:22;;;;;;;;;;;17.30;52.70;;;;;;7399701;19;1759;-74
2023/12/28 03:27:47;;;;;;;;;;;17.20;52.70;;;;;;7398093;19;993;-74
2023/12/28 03:30:13;;;;;;;;;;;17.20;53.00;;;;;;7395971;19;2869;-73
2023/12/28 03:32:38;;;;;;;;;;;17.10;53.20;;;;;;7401194;19;1384;-73
2023/12/28 03:35:06;;;;;;;;;;;17.10;53.40;;;;;;7396670;19;1158;-74
2023/12/28 03:37:32;;;;;;;;;;;17.00;53.50;;;;;;7396764;19;3076;-74
2023/12/28 03:39:57;;;;;;;;;;;17.00;53.70;;;;;;7396554;19;911;-73
2023/12/28 03:42:23;;;;;;;;;;;16.90;53.80;;;;;;7394954;19;1845;-73
2023/12/28 03:44:48;;;;;;;;;;;16.80;54.00;;;;;;7396059;19;4344;-73
2023/12/28 03:47:13;;;;;;;;;;;16.80;54.20;;;;;;7397903;19;1324;-73
2023/12/28 03:49:39;;;;;;;;;;;16.70;54.30;;;;;;7395107;19;833;-74
2023/12/28 03:52:05;;;;;;;;;;;16.60;54.40;;;;;;7394751;19;3064;-74
2023/12/28 03:54:30;;;;;;;;;;;16.60;54.50;;;;;;7398071;19;1441;-73
2023/12/28 03:56:55;;;;;;;;;;;16.60;54.60;;;;;;7398934;19;3363;-74
2023/12/28 03:59:21;;;;;;;;;;;16.60;54.60;;;;;;7395385;19;2994;-73
2023/12/28 04:01:47;;;;;;;;;;;16.60;54.80;;;;;;7399054;19;1207;-73
2023/12/28 04:04:12;;;;;;;;;;;16.50;54.70;;;;;;7394630;19;1562;-73
2023/12/28 04:06:37;;;;;;;;;;;16.60;54.70;;;;;;7396395;19;3602;-73
2023/12/28 04:09:03;;;;;;;;;;;16.60;54.70;;;;;;7397964;19;1797;-74
2023/12/28 04:11:28;;;;;;;;;;;16.60;54.60;;;;;;7396445;19;1443;-73
2023/12/28 04:13:54;;;;;;;;;;;16.70;54.50;;;;;;7396917;19;2871;-73
2023/12/28 04:16:20;;;;;;;;;;;16.70;54.50;;;;;;7398422;19;1676;-74
2023/12/28 04:18:45;;;;;;;;;;;16.70;54.30;;;;;;7398332;19;1556;-74
2023/12/28 04:21:11;;;;;;;;;;;16.80;54.20;;;;;;7394750;19;3437;-73
2023/12/28 04:23:37;;;;;;;;;;;16.80;54.10;;;;;;7395716;19;1854;-74
2023/12/28 04:26:02;;;;;;;;;;;16.90;54.10;;;;;;7398877;19;1536;-73
2023/12/28 04:28:28;;;;;;;;;;;16.90;54.00;;;;;;7397505;19;4111;-74
2023/12/28 04:30:53;;;;;;;;;;;17.00;53.80;;;;;;7395743;19;1632;-74
2023/12/28 04:33:19;;;;;;;;;;;17.00;53.70;;;;;;7398816;19;1431;-73
2023/12/28 04:35:44;;;;;;;;;;;17.10;53.70;;;;;;7396189;19;2836;-74
2023/12/28 04:38:10;;;;;;;;;;;17.10;53.60;;;;;;7396310;19;1519;-73
2023/12/28 04:40:35;;;;;;;;;;;17.10;53.60;;;;;;7395520;19;1852;-73
2023/12/28 04:43:01;;;;;;;;;;;17.10;53.60;;;;;;7396863;19;4839;-73
2023/12/28 04:45:27;;;;;;;;;;;17.10;53.70;;;;;;7398418;19;1666;-74
2023/12/28 04:47:53;;;;;;;;;;;17.10;53.80;;;;;;7398654;19;1420;-73
2023/12/28 04:50:18;;;;;;;;;;;17.00;53.80;;;;;;7396996;19;3471;-74
2023/12/28 04:52:43;;;;;;;;;;;17.00;53.90;;;;;;7397601;19;1531;-74
2023/12/28 04:55:09;;;;;;;;;;;17.00;53.90;;;;;;7398130;19;1448;-74
2023/12/28 04:57:34;;;;;;;;;;;17.00;53.90;;;;;;7393402;19;3334;-74
2023/12/28 05:00:00;;;;;;;;;;;17.00;53.90;;;;;;7396500;19;1603;-74
2023/12/28 05:02:25;;;;;;;;;;;17.00;53.90;;;;;;7394170;19;3395;-74
2023/12/28 05:04:50;;;;;;;;;;;17.00;53.90;;;;;;7394570;19;3036;-74
2023/12/28 05:07:16;;;;;;;;;;;17.00;54.00;;;;;;7397466;19;1428;-73
2023/12/28 05:09:41;;;;;;;;;;;17.00;54.00;;;;;;7396591;19;2787;-74
2023/12/28 05:12:07;;;;;;;;;;;16.90;54.20;;;;;;7394276;19;3235;-74
2023/12/28 05:14:33;;;;;;;;;;;16.90;54.30;;;;;;7398908;19;1502;-73
2023/12/28 05:16:58;;;;;;;;;;;16.80;54.30;;;;;;7395906;19;1515;-74
2023/12/28 05:19:23;;;;;;;;;;;16.80;54.40;;;;;;7394803;19;3918;-73
2023/12/28 05:21:49;;;;;;;;;;;16.80;54.50;;;;;;7398923;19;1582;-74
2023/12/28 05:24:14;;;;;;;;;;;16.70;54.50;;;;;;7391452;19;1861;-73
2023/12/28 05:26:40;;;;;;;;;;;16.80;54.60;;;;;;7391245;19;3144;-74
2023/12/28 05:29:05;;;;;;;;;;;16.80;54.60;;;;;;7396404;19;1545;-73
2023/12/28 05:31:31;;;;;;;;;;;16.80;54.50;;;;;;7396942;19;1062;-73
2023/12/28 05:33:58;;;;;;;;;;;16.80;54.40;;;;;;7393374;19;3266;-73
2023/12/28 05:36:23;;;;;;;;;;;16.90;54.50;;;;;;7392694;19;1369;-74
2023/12/28 05:38:49;;;;;;;;;;;16.90;54.30;;;;;;7394695;19;1474;-74
2023/12/28 05:41:14;;;;;;;;;;;16.90;54.30;;;;;;7393135;19;3400;-73
2023/12/28 05:43:40;;;;;;;;;;;16.90;54.30;;;;;;7390999;19;1837;-74
2023/12/28 05:46:05;;;;;;;;;;;16.90;54.30;;;;;;7392378;19;2640;-73
2023/12/28 05:48:31;;;;;;;;;;;16.90;54.40;;;;;;7393743;19;3478;-74
2023/12/28 05:50:59;;;;;;;;;;;16.90;54.30;;;;;;7392667;19;866;-73
2023/12/28 05:53:26;;;;;;;;;;;16.90;54.30;;;;;;7393650;19;1001;-73
2023/12/28 05:55:52;;;;;;;;;;;16.90;54.20;;;;;;7393802;19;2854;-74
2023/12/28 05:58:17;;;;;;;;;;;17.00;54.30;;;;;;7394579;19;1432;-73
2023/12/28 06:00:43;;;;;;;;;;;16.90;54.20;;;;;;7394250;19;1048;-73
2023/12/28 06:03:08;;;;;;;;;;;17.00;54.20;;;;;;7392080;19;3565;-74
2023/12/28 06:05:34;;;;;;;;;;;17.00;54.10;;;;;;7393565;19;1565;-74
2023/12/28 06:07:59;;;;;;;;;;;17.00;54.10;;;;;;7391991;19;1292;-74
2023/12/28 06:10:24;;;;;;;;;;;17.00;54.10;;;;;;7392882;19;3234;-73
2023/12/28 06:12:50;;;;;;;;;;;17.00;54.00;;;;;;7398064;19;1068;-74
2023/12/28 06:15:16;;;;;;;;;;;17.00;54.20;;;;;;7399661;19;3551;-74
2023/12/28 06:17:41;;;;;;;;;;;16.90;54.20;;;;;;7400712;19;2732;-73
2023/12/28 06:20:08;;;;;;;;;;;16.90;54.30;;;;;;7401492;19;1391;-74
2023/12/28 06:22:33;;;;;;;;;;;17.00;54.40;;;;;;7401084;19;1845;-74
2023/12/28 06:24:59;;;;;;;;;;;17.00;54.40;;;;;;7400687;19;3027;-74
2023/12/28 06:27:24;;;;;;;;;;;17.00;54.30;;;;;;7401802;19;1611;-74
2023/12/28 06:29:50;;;;;;;;;;;17.00;54.30;;;;;;7398614;19;839;-73
2023/12/28 06:32:15;;;;;;;;;;;17.00;54.30;;;;;;7400053;19;3325;-74
2023/12/28 06:34:41;;;;;;;;;;;17.00;54.30;;;;;;7403198;19;1690;-73
2023/12/28 06:37:06;;;;;;;;;;;17.00;54.30;;;;;;7396389;19;3898;-74
2023/12/28 06:39:31;;;;;;;;;;;17.00;54.30;;;;;;7402155;19;3099;-74
2023/12/28 06:41:57;;;;;;;;;;;17.00;54.30;;;;;;7397641;19;1948;-74
2023/12/28 06:44:22;;;;;;;;;;;17.00;54.20;;;;;;7398500;19;4362;-73
2023/12/28 06:46:48;;;;;;;;;;;17.00;54.30;;;;;;7402551;19;3285;-74
2023/12/28 06:49:13;;;;;;;;;;;17.00;54.20;;;;;;7400632;19;1568;-74
2023/12/28 06:51:39;;;;;;;;;;;17.00;54.40;;;;;;7399206;19;3086;-73
2023/12/28 06:54:04;;;;;;;;;;;17.00;54.30;;;;;;7401934;19;3225;-73
2023/12/28 06:56:30;;;;;;;;;;;17.00;54.50;;;;;;7397146;19;994;-74
2023/12/28 06:58:55;;;;;;;;;;;17.00;54.50;;;;;;7396799;19;3125;-73
2023/12/28 07:01:20;;;;;;;;;;;17.00;54.50;;;;;;7398112;19;4681;-74
2023/12/28 07:03:46;;;;;;;;;;;17.00;54.50;;;;;;7394778;19;2983;-73
2023/12/28 07:06:13;;;;;;;;;;;16.90;54.50;;;;;;7397616;19;2888;-74
2023/12/28 07:08:38;;;;;;;;;;;16.90;54.50;;;;;;7394993;19;1289;-74
2023/12/28 07:11:03;;;;;;;;;;;16.90;54.50;;;;;;7398277;19;1754;-74
2023/12/28 07:13:29;;;;;;;;;;;16.90;54.50;;;;;;7396381;19;4603;-73
2023/12/28 07:15:54;;;;;;;;;;;16.90;54.50;;;;;;7403216;19;800;-74
2023/12/28 07:18:20;;;;;;;;;;;17.00;54.50;;;;;;7400996;19;1554;-74
2023/12/28 07:20:45;;;;;;;;;;;17.00;54.40;;;;;;7399616;19;2810;-74
2023/12/28 07:23:11;;;;;;;;;;;17.00;54.50;;;;;;7397941;19;3134;-74
2023/12/28 07:25:36;;;;;;;;;;;17.00;54.50;;;;;;7397832;19;1428;-73
2023/12/28 07:28:02;;;;;;;;;;;17.00;55.10;;;;;;7395113;19;3125;-73
2023/12/28 07:30:27;;;;;;;;;;;17.00;54.50;;;;;;7403390;19;894;-74
2023/12/28 07:32:53;;;;;;;;;;;17.00;54.30;;;;;;7396834;19;1481;-74
2023/12/28 07:35:18;;;;;;;;;;;17.00;54.30;;;;;;7395682;19;3065;-73
2023/12/28 07:37:44;;;;;;;;;;;17.10;54.40;;;;;;7397709;19;1371;-74
2023/12/28 07:40:11;;;;;;;;;;;17.00;54.30;;;;;;7399422;19;1776;-74
2023/12/28 07:42:36;;;;;;;;;;;17.00;54.40;;;;;;7396047;19;3065;-74
2023/12/28 07:45:02;;;;;;;;;;;17.00;54.50;;;;;;7397787;19;3649;-74
2023/12/28 07:47:27;;;;;;;;;;;16.90;54.50;;;;;;7399360;19;1486;-74
2023/12/28 07:49:56;;;;;;;;;;;17.00;54.60;;;;;;7395256;19;3841;-74
2023/12/28 07:52:21;;;;;;;;;;;16.90;54.50;;;;;;7399077;19;1607;-74
2023/12/28 07:54:47;;;;;;;;;;;17.00;54.60;;;;;;7399777;19;1436;-73
2023/12/28 07:57:12;;;;;;;;;;;16.90;54.60;;;;;;7397869;19;3021;-73
2023/12/28 07:59:37;;;;;;;;;;;16.90;54.90;;;;;;7397579;19;1326;-74
2023/12/28 08:02:03;;;;;;;;;;;16.90;54.90;;;;;;7397292;19;3204;-74
2023/12/28 08:04:28;;;;;;;;;;;16.90;54.80;;;;;;7395001;19;2893;-74
2023/12/28 08:06:54;;;;;;;;;;;16.90;54.60;;;;;;7396806;19;1332;-74
2023/12/28 08:09:19;;;;;;;;;;;17.00;54.60;;;;;;7398448;19;1326;-74
2023/12/28 08:11:45;;;;;;;;;;;17.00;54.60;;;;;;7393347;19;2866;-74
2023/12/28 08:14:10;;;;;;;;;;;17.00;54.60;;;;;;7400436;19;1300;-74
2023/12/28 08:16:36;;;;;;;;;;;16.90;54.60;;;;;;7395289;19;1290;-74
2023/12/28 08:19:02;;;;;;;;;;;16.90;54.60;;;;;;7395883;19;2764;-74
2023/12/28 08:21:27;;;;;;;;;;;16.90;54.70;;;;;;7395349;19;1286;-74
2023/12/28 08:23:53;;;;;;;;;;;17.00;54.70;;;;;;7393156;19;1846;-74
2023/12/28 08:26:18;;;;;;;;;;;17.00;54.60;;;;;;7394745;19;3387;-74
2023/12/28 08:28:43;;;;;;;;;;;17.00;54.50;;;;;;7399026;19;899;-74
2023/12/28 08:31:09;;;;;;;;;;;17.00;54.50;;;;;;7395870;19;1340;-74
2023/12/28 08:33:35;;;;;;;;;;;17.10;54.50;;;;;;7395904;19;4295;-73
2023/12/28 08:36:03;;;;;;;;;;;17.10;54.50;;;;;;7394727;19;914;-74
2023/12/28 08:38:28;;;;;;;;;;;17.10;54.30;;;;;;7393696;19;1333;-74
2023/12/28 08:40:53;;;;;;;;;;;17.10;54.50;;;;;;7394005;19;4037;-74
2023/12/28 08:43:19;;;;;;;;;;;17.00;54.50;;;;;;7393956;19;1977;-74
2023/12/28 08:45:44;;;;;;;;;;;17.00;54.60;;;;;;7394615;19;2013;-74
2023/12/28 08:48:10;;;;;;;;;;;17.00;54.80;;;;;;7392539;19;3167;-74
2023/12/28 08:50:35;;;;;;;;;;;17.00;54.80;;;;;;7397464;19;2972;-74
2023/12/28 08:53:01;;;;;;;;;;;17.00;54.70;;;;;;7394531;19;1428;-75
2023/12/28 08:55:26;;;;;;;;;;;17.00;54.60;;;;;;7394183;19;2984;-74
2023/12/28 08:57:51;;;;;;;;;;;17.00;54.60;;;;;;7396797;19;1298;-74
2023/12/28 09:00:18;;;;;;;;;;;17.10;54.60;;;;;;7393511;19;1006;-75
2023/12/28 09:02:43;;;;;;;;;;;17.10;54.50;;;;;;7393573;19;2977;-74
2023/12/28 09:05:09;;;;;;;;;;;17.10;54.60;;;;;;7391901;19;2900;-74
2023/12/28 09:07:36;;;;;;;;;;;17.10;54.60;;;;;;7396422;19;1517;-74
2023/12/28 09:10:02;;;;;;;;;;;17.10;54.60;;;;;;7394466;19;4193;-74
2023/12/28 09:12:27;;;;;;;;;;;17.10;54.60;;;;;;7392318;19;1941;-75
2023/12/28 09:14:53;;;;;;;;;;;17.10;54.50;;;;;;7397172;19;1351;-74
2023/12/28 09:17:21;;;;;;;;;;;17.10;54.50;;;;;;7392457;19;3974;-74
2023/12/28 09:19:46;;;;;;;;;;;17.10;54.50;;;;;;7392955;19;2873;-74
2023/12/28 09:22:11;;;;;;;;;;;17.10;54.60;;;;;;7396193;19;2757;-74
2023/12/28 09:24:37;;;;;;;;;;;17.10;54.80;;;;;;7394846;19;2976;-75
2023/12/28 09:27:03;;;;;;;;;;;17.00;54.80;;;;;;7391975;19;804;-74
2023/12/28 09:29:28;;;;;;;;;;;17.00;54.90;;;;;;7392987;19;1085;-74
2023/12/28 09:31:53;;;;;;;;;;;17.00;55.00;;;;;;7393139;19;3960;-74
2023/12/28 09:34:19;;;;;;;;;;;17.00;55.10;;;;;;7393739;19;2911;-74
2023/12/28 09:36:44;;;;;;;;;;;16.90;55.10;;;;;;7394505;19;1254;-74
2023/12/28 09:39:11;;;;;;;;;;;17.00;55.10;;;;;;7393309;19;2748;-74
2023/12/28 09:41:39;;;;;;;;;;;16.90;55.10;;;;;;7390422;19;3027;-74
2023/12/28 09:44:04;;;;;;;;;;;17.00;55.10;;;;;;7392894;19;1838;-74
2023/12/28 09:46:31;;;;;;;;;;;17.00;55.00;;;;;;7396674;19;3480;-74
2023/12/28 09:48:56;;;;;;;;;;;17.10;54.90;;;;;;7403224;19;1423;-75
2023/12/28 09:51:22;;;;;;;;;;;17.20;54.80;;;;;;7399713;19;886;-74
2023/12/28 09:53:47;;;;;;;;;;;17.20;54.60;;;;;;7401884;19;3237;-75
2023/12/28 09:56:14;;;;;;;;;;;17.30;54.70;;;;;;7396728;19;3405;-75
2023/12/28 09:58:39;;;;;;;;;;;17.40;54.40;;;;;;7397773;19;3282;-74
2023/12/28 10:01:05;;;;;;;;;;;17.40;54.30;;;;;;7400560;19;2958;-74
2023/12/28 10:03:30;;;;;;;;;;;17.40;54.20;;;;;;7399563;19;1847;-74
2023/12/28 10:05:56;;;;;;;;;;;17.50;54.30;;;;;;7400489;19;3346;-74
2023/12/28 10:08:21;;;;;;;;;;;17.50;54.30;;;;;;7399403;19;2831;-74
2023/12/28 10:10:50;;;;;;;;;;;17.50;54.10;;;;;;7399627;19;2146;-74
2023/12/28 10:13:16;;;;;;;;;;;17.50;54.20;;;;;;7400754;19;2195;-74
2023/12/28 10:15:43;;;;;;;;;;;17.50;54.20;;;;;;7397815;19;4400;-73
2023/12/28 10:18:08;;;;;;;;;;;17.60;54.20;;;;;;7399168;19;4338;-74
2023/12/28 10:20:34;;;;;;;;;;;17.60;54.40;;;;;;7401894;19;1616;-74
2023/12/28 10:22:59;;;;;;;;;;;17.60;54.30;;;;;;7398088;19;4442;-74
2023/12/28 10:25:25;;;;;;;;;;;17.60;54.30;;;;;;7399201;19;1549;-74
2023/12/28 10:27:54;;;;;;;;;;;17.70;54.20;;;;;;7398583;19;1164;-74
2023/12/28 10:30:19;;;;;;;;;;;17.60;54.10;;;;;;7398157;19;3492;-74
2023/12/28 10:32:45;;;;;;;;;;;17.70;54.20;;;;;;7399763;19;2619;-74
2023/12/28 10:35:10;;;;;;;;;;;17.70;54.20;;;;;;7398043;19;1621;-75
2023/12/28 10:37:36;;;;;;;;;;;17.70;54.10;;;;;;7400844;19;3435;-74
2023/12/28 10:40:03;;;;;;;;;;;17.70;54.20;;;;;;7398264;19;1253;-74
2023/12/28 10:42:30;;;;;;;;;;;17.70;54.30;;;;;;7399181;19;2017;-74
2023/12/28 10:45:00;;;;;;;;;;;17.70;54.30;;;;;;7395769;19;3387;-74
2023/12/28 10:47:26;;;;;;;;;;;17.70;54.70;;;;;;7397341;19;2066;-74
2023/12/28 10:49:53;;;;;;;;;;;17.70;54.70;;;;;;7400222;19;1705;-74
2023/12/28 10:52:18;;;;;;;;;;;17.80;54.80;;;;;;7398123;19;2916;-74
2023/12/28 10:54:47;;;;;;;;;;;17.80;54.50;;;;;;7398297;19;1618;-74
2023/12/28 10:57:33;;;;;;;;;;;17.70;54.40;;;;;;7395409;19;2121;-74
2023/12/28 11:00:10;;;;;;;;;;;17.70;54.70;;;;;;7400497;19;2878;-74
2023/12/28 11:02:40;;;;;;;;;;;17.70;54.50;;;;;;7397968;19;1849;-74
2023/12/28 11:05:06;;;;;;;;;;;17.70;54.80;;;;;;7395874;19;3353;-74
2023/12/28 11:07:32;;;;;;;;;;;17.60;54.80;;;;;;7396801;19;3210;-74
2023/12/28 11:09:59;;;;;;;;;;;17.60;55.00;;;;;;7396872;19;1944;-74
2023/12/28 11:12:24;;;;;;;;;;;17.60;55.00;;;;;;7385830;19;4400;-74
2023/12/28 11:14:52;;;;;;;;;;;17.60;55.00;;;;;;7394515;19;2925;-74
2023/12/28 11:17:18;;;;;;;;;;;17.70;55.20;;;;;;7398459;19;2408;-74
2023/12/28 11:19:43;;;;;;;;;;;17.70;55.20;;;;;;7399029;19;1535;-74
2023/12/28 11:22:08;;;;;;;;;;;17.70;54.80;;;;;;7399692;19;1849;-74
2023/12/28 11:24:34;;;;;;;;;;;17.70;54.90;;;;;;7393182;19;3620;-74
2023/12/28 11:26:59;;;;;;;;;;;17.70;54.80;;;;;;7394251;19;4482;-74
2023/12/28 11:29:25;;;;;;;;;;;17.70;54.80;;;;;;7400854;19;1491;-75
2023/12/28 11:31:54;;;;;;;;;;;17.90;55.40;;;;;;7397945;19;3158;-74
2023/12/28 11:34:24;;;;;;;;;;;18.50;54.30;;;;;;7394013;19;1609;-74
2023/12/28 11:36:54;;;;;;;;;;;19.20;53.00;;;;;;7398767;19;1403;-74
2023/12/28 11:39:30;;;;;;;;;;;19.60;52.20;;;;;;7395281;19;1607;-73
2023/12/28 11:42:22;;;;;;;;;;;19.80;51.60;;;;;;7396843;19;1598;-73
2023/12/28 11:44:49;;;;;;;;;;;19.90;51.30;;;;;;7398402;19;2754;-74
2023/12/28 11:47:22;;;;;;;;;;;20.10;50.90;;;;;;7398959;19;1575;-74
2023/12/28 11:49:48;;;;;;;;;;;20.10;50.90;;;;;;7397110;19;1605;-75
2023/12/28 11:52:27;;;;;;;;;;;19.90;50.90;;;;;;7396234;19;1737;-74
2023/12/28 11:54:52;;;;;;;;;;;19.90;51.10;;;;;;7397621;19;1944;-74
2023/12/28 11:57:18;;;;;;;;;;;19.80;51.40;;;;;;7393569;19;2144;-74
2023/12/28 11:59:43;;;;;;;;;;;19.70;51.40;;;;;;7397613;19;2076;-74
2023/12/28 12:02:09;;;;;;;;;;;19.60;51.80;;;;;;7395283;19;1842;-74
2023/12/28 12:04:35;;;;;;;;;;;19.60;51.80;;;;;;7397592;19;1951;-74
2023/12/28 12:07:04;;;;;;;;;;;19.70;51.80;;;;;;7396355;19;1607;-74
2023/12/28 12:09:34;;;;;;;;;;;19.60;51.90;;;;;;7392385;19;2635;-74
2023/12/28 12:12:02;;;;;;;;;;;19.40;52.10;;;;;;7394303;19;1584;-74
2023/12/28 12:14:31;;;;;;;;;;;19.40;52.50;;;;;;7398915;19;1448;-74
2023/12/28 12:16:56;;;;;;;;;;;19.60;52.10;;;;;;7396605;19;2170;-74
2023/12/28 12:19:22;;;;;;;;;;;19.70;51.60;;;;;;7396658;19;2751;-74
2023/12/28 12:21:48;;;;;;;;;;;19.90;51.50;;;;;;7398288;19;1712;-74
2023/12/28 12:24:13;;;;;;;;;;;20.10;51.30;;;;;;7396894;19;1852;-72
2023/12/28 12:26:39;;;;;;;;;;;20.20;50.70;;;;;;7397639;19;1631;-73
2023/12/28 12:29:04;;;;;;;;;;;20.20;50.70;;;;;;7398059;19;1385;-72
2023/12/28 12:31:30;;;;;;;;;;;20.20;50.80;;;;;;7392264;19;1536;-73
2023/12/28 12:33:55;;;;;;;;;;;20.30;50.80;;;;;;7395453;19;1517;-73
2023/12/28 12:36:21;;;;;;;;;;;20.30;50.70;;;;;;7394140;19;1519;-74
2023/12/28 12:38:47;;;;;;;;;;;20.40;50.80;;;;;;7396841;19;2044;-74
2023/12/28 12:41:12;;;;;;;;;;;20.30;50.60;;;;;;7397145;19;1719;-74
2023/12/28 12:43:38;;;;;;;;;;;20.30;50.70;;;;;;7394464;19;1857;-74
2023/12/28 12:46:04;;;;;;;;;;;20.30;50.60;;;;;;7392733;19;2106;-73
2023/12/28 12:48:29;;;;;;;;;;;20.20;50.70;;;;;;7394728;19;1636;-73
2023/12/28 12:50:55;;;;;;;;;;;20.20;50.90;;;;;;7393132;19;1623;-73
2023/12/28 12:53:21;;;;;;;;;;;20.20;50.80;;;;;;7396970;19;1475;-73
2023/12/28 12:55:47;;;;;;;;;;;20.40;50.80;;;;;;7394446;19;1334;-74
2023/12/28 12:58:13;;;;;;;;;;;20.50;50.40;;;;;;7396255;19;1829;-74
2023/12/28 13:00:41;;;;;;;;;;;20.50;50.40;;;;;;7394903;19;1986;-74
2023/12/28 13:03:09;;;;;;;;;;;20.60;50.70;;;;;;7394893;19;1923;-74
2023/12/28 13:05:35;;;;;;;;;;;20.60;50.30;;;;;;7395573;19;1487;-74
2023/12/28 13:08:01;;;;;;;;;;;20.60;50.40;;;;;;7393747;19;2656;-73
2023/12/28 13:10:26;;;;;;;;;;;20.60;50.40;;;;;;7392864;19;3536;-74
2023/12/28 13:12:51;;;;;;;;;;;20.50;50.40;;;;;;7395180;19;2309;-74
2023/12/28 13:15:17;;;;;;;;;;;20.50;50.50;;;;;;7390037;19;1457;-74
2023/12/28 13:17:43;;;;;;;;;;;20.30;50.60;;;;;;7388183;19;2748;-74
2023/12/28 13:20:09;;;;;;;;;;;20.10;51.00;;;;;;7390861;19;1438;-74
2023/12/28 13:22:34;;;;;;;;;;;20.00;51.20;;;;;;7388585;19;1806;-74
2023/12/28 13:25:01;;;;;;;;;;;19.80;51.50;;;;;;7393065;19;1548;-74
2023/12/28 13:27:28;;;;;;;;;;;19.60;51.90;;;;;;7392158;19;1220;-74
2023/12/28 13:29:53;;;;;;;;;;;19.50;52.20;;;;;;7388967;19;1467;-74
2023/12/28 13:32:19;;;;;;;;;;;19.50;52.30;;;;;;7392930;19;1778;-74
2023/12/28 13:34:44;;;;;;;;;;;19.40;52.30;;;;;;7392264;19;1168;-74
2023/12/28 13:37:10;;;;;;;;;;;19.40;52.30;;;;;;7392852;19;847;-73
2023/12/28 13:39:38;;;;;;;;;;;19.30;52.60;;;;;;7394463;19;779;-74
2023/12/28 13:42:07;;;;;;;;;;;19.30;52.60;;;;;;7391817;19;850;-74
2023/12/28 13:44:33;;;;;;;;;;;19.40;53.10;;;;;;7394780;19;1837;-74
2023/12/28 13:46:58;;;;;;;;;;;19.60;52.40;;;;;;7395859;19;1355;-74
2023/12/28 13:49:25;;;;;;;;;;;19.80;51.80;;;;;;7393357;19;1349;-73
2023/12/28 13:51:51;;;;;;;;;;;20.20;51.30;;;;;;7392469;19;1156;-74
2023/12/28 13:54:19;;;;;;;;;;;20.30;50.80;;;;;;7392104;19;1276;-74
2023/12/28 13:56:44;;;;;;;;;;;20.40;50.50;;;;;;7395337;19;1487;-74
2023/12/28 13:59:10;;;;;;;;;;;20.50;50.60;;;;;;7395037;19;1527;-75
2023/12/28 14:01:36;;;;;;;;;;;20.40;50.30;;;;;;7396237;19;1768;-74
2023/12/28 14:04:03;;;;;;;;;;;20.40;50.30;;;;;;7393530;19;1863;-74
2023/12/28 14:06:28;;;;;;;;;;;20.40;50.50;;;;;;7391932;19;1606;-74
2023/12/28 14:08:54;;;;;;;;;;;20.40;50.60;;;;;;7389890;19;1290;-74
2023/12/28 14:11:19;;;;;;;;;;;20.50;50.40;;;;;;7395258;19;2798;-74
2023/12/28 14:13:45;;;;;;;;;;;20.50;50.40;;;;;;7393681;19;1065;-74
2023/12/28 14:16:10;;;;;;;;;;;20.40;50.40;;;;;;7399443;19;1398;-74
2023/12/28 14:18:35;;;;;;;;;;;20.20;50.60;;;;;;7396670;19;1791;-74
2023/12/28 14:21:01;;;;;;;;;;;20.00;51.00;;;;;;7396496;19;1352;-74
2023/12/28 14:23:26;;;;;;;;;;;19.90;51.40;;;;;;7390155;19;2463;-74